Aviation Digital Data Service (ADDS)

Output produced by METARs form (1752 UTC 24 March 2017)
found at http://www.aviationweather.gov/adds/metars/
 
UAAA 241730Z 18002MPS 1900 R23R/P2000N R23L/P2000D FU SCT100 BKN200 10/01 Q1016 R88/65D TEMPO 1000 BR FU
TAF UAAA 241700Z 2418/2518 14005MPS 3000 BR FU BKN020CB OVC100 TX14/2509Z TN04/2501Z 
     TEMPO 2418/2504 1000 
     BECMG 2505/2506 04005MPS 5000 
     TEMPO 2514/2518 26005MPS 1000
       
TAF UAAH 241103Z 2412/2421 08007MPS 6000 SCT020CB BKN100 
     TEMPO 2415/2421 1000 -FZRA BR BKN003
       
UACC 241730Z 24007MPS 9999 OVC004 01/M00 Q1014 R22/1/0060 TEMPO 1000 DZ BR OVC003 RMK QBB140 QFE729/0973
TAF COR UACC 241700Z 2418/2518 23006MPS 3000 -RASN BR BKN004 BKN020 TX01/2509Z TNM03/2501Z 
     TEMPO 2418/2505 0300 FZDZ FZFG VV002 
     FM250500 29006MPS 9999 SCT005 BKN030 
     TEMPO 2512/2518 3000 BR SCT004
       
TAF UACK 241100Z 2412/2421 18005MPS 9999 SCT033 BKN100 
     TEMPO 2412/2415 SCT007
       
UACP 241300Z 14003MPS CAVOK M05/M08 Q1012 R05/0/0060 NOSIG RMK QFE747/0996
TAF UACP 241059Z 2412/2421 13003MPS 9999 SCT030
       
UADD 241730Z 36001MPS 9999 OVC013 07/06 Q1019 R13/0///65 NOSIG RMK MT OBSC QFE707/0943
TAF UADD 241700Z 2418/2503 34005G10MPS 3000 BR BKN010CB OVC050
       
UAII 241730Z 28002MPS 9999 SCT033CB OVC100 08/04 Q1020 R10/0///70 NOSIG RMK QFE729/0973
TAF UAII 241700Z 2418/2518 24005MPS 6000 BKN025CB OVC100 TX13/2509Z TN04/2501Z 
     TEMPO 2418/2420 20007MPS 2000 -SHRA BR SCT015CB 
     TEMPO 2420/2503 20007MPS 0500 -SHRA FG BKN002 BKN015CB 
     TEMPO 2503/2518 31007MPS 2000 SHRA BR BKN007 BKN020CB
       
TAF COR UAKD 241100Z 2412/2421 25007MPS 3000 BR BKN007 OVC100 
     TEMPO 2412/2415 28007MPS 1000 FZRA SN OVC003 
     TEMPO 2415/2421 0500 FZRA FZFG VV002
       
UAKK 241730Z 21010MPS 9999 OVC015 01/M01 Q1016 R23/1///65 NOSIG RMK QFE715/0954
TAF UAKK 241700Z 2418/2518 23008MPS 3000 -RASN BR BKN005 BKN020 TXM01/2510Z TNM03/2501Z 
     TEMPO 2418/2504 0400 FZDZ FZFG VV002 
     BECMG 2504/2506 26007MPS 9999 NSW BKN008 BKN030 
     TEMPO 2506/2518 4000 SNRA BKN007
       
UAOO 241700Z 00000MPS CAVOK 04/02 Q1023 NOSIG RMK QFE755/1007
TAF UAOO 241700Z 2418/2503 33004MPS 9999 BKN033
       
UARR 241730Z VRB01MPS 9000 NSC M02/M03 Q1024 R22/CLRD70 TEMPO 3000 BR BKN005 RMK QFE764/1019
TAF UARR 241400Z 2415/2424 16005MPS 3000 BR BKN010 
     TEMPO 2415/2418 2000 BKN005 
     TEMPO 2418/2424 0500 FZFG VV002
       
UASK 241730Z VRB01MPS 7000 BKN230 M04/M09 Q1022 R30/710150 NOSIG RMK QFE741/0988
TAF UASK 241702Z 2418/2503 12005MPS 3000 BR SCT020 BKN100 
     TEMPO 2418/2424 VRB02MPS 0200 FZFG BKN002
       
UASP 241730Z 17004MPS 9999 OVC036CB 01/M00 Q1015 R21/0///60 NOSIG RMK QFE750/1000
TAF UASP 241700Z 2418/2503 17009MPS 2100 -SHRA BKN006 OVC011CB 
     TEMPO 2418/2424 17005MPS 1000 BR BKN003
       
UASS 241200Z 16005MPS CAVOK 01/M04 Q1023 NOSIG RMK QFE749/0998
TAF UASS 241100Z 2412/2421 15010G15MPS 9999 NSC 
     TEMPO 2412/2418 18010G15MPS
       
UATE 241730Z 30003MPS 270V330 CAVOK 03/02 Q1028 R30/0///70 NOSIG RMK QFE769/1026
TAF UATE 241708Z 2418/2518 VRB02MPS 9999 SCT040 TX10/2510Z TN01/2502Z 
     TEMPO 2418/2503 0400 FG VV001 
     BECMG 2504/2506 36006MPS 
     BECMG 2508/2510 18009G15MPS
       
UATG 241730Z 24004MPS 5000 BR NSC 02/02 Q1026 R14/CLRD70 TEMPO 0600 FG VV001 RMK QFE771/1028
TAF UATG 241702Z 2418/2518 22005MPS 3000 BR BKN010 TX12/2511Z TN00/2503Z 
     TEMPO 2418/2503 0300 FG VV001 
     BECMG 2503/2505 9999 NSW SCT010 BKN030CB 
     BECMG 2506/2508 21007G12MPS
       
UATT 241730Z 29002MPS 9999 OVC013 00/M01 Q1022 R31/0///60 NOSIG RMK QFE746/0995
TAF UATT 241700Z 2418/2518 28005MPS 3000 -SN BR BKN005 BKN010 TX03/2511Z TNM03/2501Z 
     TEMPO 2418/2506 0300 FZFG VV002 
     FM250600 19009MPS 3000 -SNRA BR SCT005 BKN010
       
UAUU 241730Z 28005MPS CAVOK M01/M03 Q1016 R33/CLRD60 NOSIG RMK QFE746/0995
TAF UAUU 241400Z 2415/2424 27005MPS 9999 SCT006 BKN010CB BKN100 2416/2424 2000 -SHSN BR